sensor_id;sensor_type;location;lat;lon;timestamp;pressure;altitude;pressure_sealevel;temperature;humidity
35704;BME280;21820;51.112;13.762;2023-02-22T00:01:11;99503.09;;;18.72;64.85
35704;BME280;21820;51.112;13.762;2023-02-22T00:03:50;99501.47;;;18.71;64.51
35704;BME280;21820;51.112;13.762;2023-02-22T00:06:18;99495.41;;;18.70;63.87
35704;BME280;21820;51.112;13.762;2023-02-22T00:08:46;99496.13;;;18.72;64.77
35704;BME280;21820;51.112;13.762;2023-02-22T00:11:11;99490.78;;;18.74;63.98
35704;BME280;21820;51.112;13.762;2023-02-22T00:13:38;99497.63;;;18.75;64.01
35704;BME280;21820;51.112;13.762;2023-02-22T00:16:05;99473.41;;;18.63;64.19
35704;BME280;21820;51.112;13.762;2023-02-22T00:18:30;99485.44;;;18.75;63.98
35704;BME280;21820;51.112;13.762;2023-02-22T00:20:57;99489.00;;;18.74;63.40
35704;BME280;21820;51.112;13.762;2023-02-22T00:23:28;99476.72;;;18.65;63.21
35704;BME280;21820;51.112;13.762;2023-02-22T00:25:55;99489.81;;;18.75;63.83
35704;BME280;21820;51.112;13.762;2023-02-22T00:28:21;99495.88;;;18.75;63.10
35704;BME280;21820;51.112;13.762;2023-02-22T00:30:48;99492.44;;;18.75;63.64
35704;BME280;21820;51.112;13.762;2023-02-22T00:33:15;99498.47;;;18.75;63.72
35704;BME280;21820;51.112;13.762;2023-02-22T00:35:42;99482.00;;;18.75;63.70
35704;BME280;21820;51.112;13.762;2023-02-22T00:38:10;99481.19;;;18.74;63.26
35704;BME280;21820;51.112;13.762;2023-02-22T00:40:36;99477.63;;;18.75;63.17
35704;BME280;21820;51.112;13.762;2023-02-22T00:43:04;99480.25;;;18.75;63.50
35704;BME280;21820;51.112;13.762;2023-02-22T00:45:31;99483.69;;;18.76;63.49
35704;BME280;21820;51.112;13.762;2023-02-22T00:47:56;99465.81;;;18.71;63.64
35704;BME280;21820;51.112;13.762;2023-02-22T00:50:23;99482.84;;;18.75;63.06
35704;BME280;21820;51.112;13.762;2023-02-22T00:52:49;99486.38;;;18.74;63.09
35704;BME280;21820;51.112;13.762;2023-02-22T00:55:19;99490.66;;;18.75;63.41
35704;BME280;21820;51.112;13.762;2023-02-22T00:57:45;99482.13;;;18.73;62.99
35704;BME280;21820;51.112;13.762;2023-02-22T01:00:16;99482.00;;;18.75;63.68
35704;BME280;21820;51.112;13.762;2023-02-22T01:02:43;99473.41;;;18.63;63.46
35704;BME280;21820;51.112;13.762;2023-02-22T01:05:11;99492.44;;;18.75;63.22
35704;BME280;21820;51.112;13.762;2023-02-22T01:07:38;99486.38;;;18.74;62.74
35704;BME280;21820;51.112;13.762;2023-02-22T01:10:05;99491.59;;;18.74;63.13
35704;BME280;21820;51.112;13.762;2023-02-22T01:12:30;99465.59;;;18.63;63.31
35704;BME280;21820;51.112;13.762;2023-02-22T01:14:55;99482.84;;;18.75;62.72
35704;BME280;21820;51.112;13.762;2023-02-22T01:17:23;99486.38;;;18.74;62.87
35704;BME280;21820;51.112;13.762;2023-02-22T01:19:50;99486.38;;;18.74;62.92
35704;BME280;21820;51.112;13.762;2023-02-22T01:22:15;99488.06;;;18.75;63.02
35704;BME280;21820;51.112;13.762;2023-02-22T01:24:41;99478.69;;;18.73;62.83
35704;BME280;21820;51.112;13.762;2023-02-22T01:27:06;99482.84;;;18.75;62.59
35704;BME280;21820;51.112;13.762;2023-02-22T01:29:32;99482.00;;;18.75;63.18
35704;BME280;21820;51.112;13.762;2023-02-22T01:31:57;99461.34;;;18.62;62.84
35704;BME280;21820;51.112;13.762;2023-02-22T01:34:23;99475.03;;;18.75;63.26
35704;BME280;21820;51.112;13.762;2023-02-22T01:36:49;99472.19;;;18.78;63.00
35704;BME280;21820;51.112;13.762;2023-02-22T01:39:16;99467.34;;;18.74;63.21
35704;BME280;21820;51.112;13.762;2023-02-22T01:41:44;99459.47;;;18.64;63.10
35704;BME280;21820;51.112;13.762;2023-02-22T01:44:33;99468.06;;;18.76;62.82
35704;BME280;21820;51.112;13.762;2023-02-22T01:47:00;99469.13;;;18.73;63.21
35704;BME280;21820;51.112;13.762;2023-02-22T01:49:32;99462.94;;;18.74;62.88
35704;BME280;21820;51.112;13.762;2023-02-22T01:52:01;99469.13;;;18.73;63.11
35704;BME280;21820;51.112;13.762;2023-02-22T01:54:31;99471.00;;;18.71;62.84
35704;BME280;21820;51.112;13.762;2023-02-22T01:56:58;99449.28;;;18.61;62.92
35704;BME280;21820;51.112;13.762;2023-02-22T01:59:29;99465.81;;;18.71;63.17
35704;BME280;21820;51.112;13.762;2023-02-22T02:01:58;99469.13;;;18.73;62.73
35704;BME280;21820;51.112;13.762;2023-02-22T02:04:24;99478.69;;;18.73;62.72
35704;BME280;21820;51.112;13.762;2023-02-22T02:06:52;99473.50;;;18.73;63.25
35704;BME280;21820;51.112;13.762;2023-02-22T02:09:38;99469.13;;;18.73;62.88
35704;BME280;21820;51.112;13.762;2023-02-22T02:12:07;99466.50;;;18.73;62.88
35704;BME280;21820;51.112;13.762;2023-02-22T02:14:33;99463.91;;;18.73;62.54
35704;BME280;21820;51.112;13.762;2023-02-22T02:17:04;99468.28;;;18.73;62.54
35704;BME280;21820;51.112;13.762;2023-02-22T02:25:29;99448.28;;;18.73;63.06
35704;BME280;21820;51.112;13.762;2023-02-22T02:34:03;99454.34;;;18.74;63.30
35704;BME280;21820;51.112;13.762;2023-02-22T02:36:49;99445.81;;;18.72;63.28
35704;BME280;21820;51.112;13.762;2023-02-22T02:39:29;99446.66;;;18.72;63.26
35704;BME280;21820;51.112;13.762;2023-02-22T02:42:02;99439.75;;;18.71;62.96
35704;BME280;21820;51.112;13.762;2023-02-22T02:44:36;99444.03;;;18.72;63.38
35704;BME280;21820;51.112;13.762;2023-02-22T02:47:12;99445.81;;;18.72;63.26
35704;BME280;21820;51.112;13.762;2023-02-22T02:50:20;99438.84;;;18.72;63.43
35704;BME280;21820;51.112;13.762;2023-02-22T02:52:44;99432.34;;;18.67;63.14
35704;BME280;21820;51.112;13.762;2023-02-22T02:55:11;99421.06;;;18.46;63.14
35704;BME280;21820;51.112;13.762;2023-02-22T02:57:37;99427.94;;;18.36;63.28
35704;BME280;21820;51.112;13.762;2023-02-22T03:00:07;99442.81;;;18.45;63.09
35704;BME280;21820;51.112;13.762;2023-02-22T03:06:07;99430.78;;;18.33;62.00
35704;BME280;21820;51.112;13.762;2023-02-22T03:11:19;99434.88;;;18.57;62.28
35704;BME280;21820;51.112;13.762;2023-02-22T03:17:00;99427.38;;;18.64;61.41
35704;BME280;21820;51.112;13.762;2023-02-22T03:19:39;99431.25;;;18.69;61.45
35704;BME280;21820;51.112;13.762;2023-02-22T03:22:17;99426.88;;;18.70;61.65
35704;BME280;21820;51.112;13.762;2023-02-22T03:25:09;99423.50;;;18.58;61.62
35704;BME280;21820;51.112;13.762;2023-02-22T03:27:54;99424.44;;;18.57;62.01
35704;BME280;21820;51.112;13.762;2023-02-22T03:30:43;99423.28;;;18.50;62.15
35704;BME280;21820;51.112;13.762;2023-02-22T03:33:15;99420.94;;;18.47;62.37
35704;BME280;21820;51.112;13.762;2023-02-22T03:35:53;99427.78;;;18.48;62.13
35704;BME280;21820;51.112;13.762;2023-02-22T03:38:23;99414.31;;;18.43;62.52
35704;BME280;21820;51.112;13.762;2023-02-22T03:40:53;99424.59;;;18.45;62.76
35704;BME280;21820;51.112;13.762;2023-02-22T03:43:26;99427.19;;;18.45;62.81
35704;BME280;21820;51.112;13.762;2023-02-22T03:45:53;99429.00;;;18.44;63.32
35704;BME280;21820;51.112;13.762;2023-02-22T03:48:34;99423.09;;;18.42;64.04
35704;BME280;21820;51.112;13.762;2023-02-22T03:51:02;99420.34;;;18.44;63.35
35704;BME280;21820;51.112;13.762;2023-02-22T03:53:29;99418.00;;;18.41;64.07
35704;BME280;21820;51.112;13.762;2023-02-22T03:55:56;99419.53;;;18.43;63.83
35704;BME280;21820;51.112;13.762;2023-02-22T03:58:23;99417.03;;;18.42;64.49
35704;BME280;21820;51.112;13.762;2023-02-22T04:00:49;99422.84;;;18.45;64.20
35704;BME280;21820;51.112;13.762;2023-02-22T04:03:18;99422.00;;;18.45;64.70
35704;BME280;21820;51.112;13.762;2023-02-22T04:05:44;99409.81;;;18.45;63.49
35704;BME280;21820;51.112;13.762;2023-02-22T04:08:09;99417.38;;;18.48;64.74
35704;BME280;21820;51.112;13.762;2023-02-22T04:10:34;99418.09;;;18.50;63.80
35704;BME280;21820;51.112;13.762;2023-02-22T04:13:02;99394.72;;;18.39;64.49
35704;BME280;21820;51.112;13.762;2023-02-22T04:15:28;99415.47;;;18.50;63.89
35704;BME280;21820;51.112;13.762;2023-02-22T04:17:53;99419.25;;;18.57;65.11
35704;BME280;21820;51.112;13.762;2023-02-22T04:20:19;99411.31;;;18.59;64.75
35704;BME280;21820;51.112;13.762;2023-02-22T04:22:52;99411.19;;;18.60;65.26
35704;BME280;21820;51.112;13.762;2023-02-22T04:25:18;99412.69;;;18.63;64.55
35704;BME280;21820;51.112;13.762;2023-02-22T04:27:43;99411.88;;;18.62;64.50
35704;BME280;21820;51.112;13.762;2023-02-22T04:30:09;99414.50;;;18.62;64.50
35704;BME280;21820;51.112;13.762;2023-02-22T04:32:35;99409.28;;;18.62;64.25
35704;BME280;21820;51.112;13.762;2023-02-22T04:35:01;99410.66;;;18.66;64.95
35704;BME280;21820;51.112;13.762;2023-02-22T04:37:26;99408.78;;;18.68;64.88
35704;BME280;21820;51.112;13.762;2023-02-22T04:39:52;99408.53;;;18.71;64.12
35704;BME280;21820;51.112;13.762;2023-02-22T04:42:17;99399.31;;;18.67;64.70
35704;BME280;21820;51.112;13.762;2023-02-22T04:44:42;99408.25;;;18.74;64.31
35704;BME280;21820;51.112;13.762;2023-02-22T04:47:08;99397.16;;;18.72;64.37
35704;BME280;21820;51.112;13.762;2023-02-22T04:49:34;99399.78;;;18.72;64.52
35704;BME280;21820;51.112;13.762;2023-02-22T04:51:59;99402.84;;;18.66;64.81
35704;BME280;21820;51.112;13.762;2023-02-22T04:54:24;99409.03;;;18.65;64.48
35704;BME280;21820;51.112;13.762;2023-02-22T04:56:49;99411.19;;;18.60;64.13
35704;BME280;21820;51.112;13.762;2023-02-22T04:59:16;99405.25;;;18.58;63.70
35704;BME280;21820;51.112;13.762;2023-02-22T05:01:41;99413.06;;;18.58;64.41
35704;BME280;21820;51.112;13.762;2023-02-22T05:04:07;99410.59;;;18.57;64.84
35704;BME280;21820;51.112;13.762;2023-02-22T05:06:32;99408.84;;;18.57;65.16
35704;BME280;21820;51.112;13.762;2023-02-22T05:08:58;99405.97;;;18.60;64.64
35704;BME280;21820;51.112;13.762;2023-02-22T05:11:23;99409.41;;;18.61;64.17
35704;BME280;21820;51.112;13.762;2023-02-22T05:13:49;99403.38;;;18.60;64.44
35704;BME280;21820;51.112;13.762;2023-02-22T05:16:14;99404.22;;;18.61;64.53
35704;BME280;21820;51.112;13.762;2023-02-22T05:18:40;99406.09;;;18.59;64.74
35704;BME280;21820;51.112;13.762;2023-02-22T05:21:06;99405.72;;;18.63;64.83
35704;BME280;21820;51.112;13.762;2023-02-22T05:23:32;99403.13;;;18.63;65.10
35704;BME280;21820;51.112;13.762;2023-02-22T05:25:58;99408.19;;;18.65;63.92
35704;BME280;21820;51.112;13.762;2023-02-22T05:28:24;99390.03;;;18.54;64.23
35704;BME280;21820;51.112;13.762;2023-02-22T05:30:49;99407.38;;;18.64;64.19
35704;BME280;21820;51.112;13.762;2023-02-22T05:33:15;99401.94;;;18.67;63.99
35704;BME280;21820;51.112;13.762;2023-02-22T05:35:41;99407.94;;;18.68;64.69
35704;BME280;21820;51.112;13.762;2023-02-22T05:38:07;99398.34;;;18.68;63.75
35704;BME280;21820;51.112;13.762;2023-02-22T05:40:32;99406.88;;;18.70;64.18
35704;BME280;21820;51.112;13.762;2023-02-22T05:42:58;99398.34;;;18.68;63.93
35704;BME280;21820;51.112;13.762;2023-02-22T05:45:25;99401.53;;;18.72;63.81
35704;BME280;21820;51.112;13.762;2023-02-22T05:47:52;99404.97;;;18.72;63.59
35704;BME280;21820;51.112;13.762;2023-02-22T05:50:18;99404.16;;;18.72;63.47
35704;BME280;21820;51.112;13.762;2023-02-22T05:52:44;99404.97;;;18.72;63.88
35704;BME280;21820;51.112;13.762;2023-02-22T05:55:12;99413.72;;;18.71;63.62
35704;BME280;21820;51.112;13.762;2023-02-22T05:57:38;99417.28;;;18.70;63.86
35704;BME280;21820;51.112;13.762;2023-02-22T06:00:05;99414.56;;;18.72;63.72
35704;BME280;21820;51.112;13.762;2023-02-22T06:02:31;99418.94;;;18.71;63.13
35704;BME280;21820;51.112;13.762;2023-02-22T06:04:57;99407.72;;;18.71;63.26
35704;BME280;21820;51.112;13.762;2023-02-22T06:07:22;99418.94;;;18.71;63.94
35704;BME280;21820;51.112;13.762;2023-02-22T06:09:48;99410.41;;;18.69;63.51
35704;BME280;21820;51.112;13.762;2023-02-22T06:12:13;99393.78;;;18.61;63.70
35704;BME280;21820;51.112;13.762;2023-02-22T06:14:38;99418.94;;;18.71;63.33
35704;BME280;21820;51.112;13.762;2023-02-22T06:17:06;99416.31;;;18.71;63.22
35704;BME280;21820;51.112;13.762;2023-02-22T06:19:31;99418.00;;;18.72;63.34
35704;BME280;21820;51.112;13.762;2023-02-22T06:21:57;99418.94;;;18.71;63.59
35704;BME280;21820;51.112;13.762;2023-02-22T06:24:24;99413.25;;;18.77;63.74
35704;BME280;21820;51.112;13.762;2023-02-22T06:26:57;99395.56;;;18.60;63.19
35704;BME280;21820;51.112;13.762;2023-02-22T06:29:24;99419.91;;;18.70;62.96
35704;BME280;21820;51.112;13.762;2023-02-22T06:31:49;99416.47;;;18.70;63.06
35704;BME280;21820;51.112;13.762;2023-02-22T06:34:15;99421.53;;;18.71;63.48
35704;BME280;21820;51.112;13.762;2023-02-22T06:36:41;99415.53;;;18.71;63.08
35704;BME280;21820;51.112;13.762;2023-02-22T06:39:07;99422.50;;;18.70;63.63
35704;BME280;21820;51.112;13.762;2023-02-22T06:41:38;99425.09;;;18.70;63.25
35704;BME280;21820;51.112;13.762;2023-02-22T06:44:04;99426.03;;;18.69;63.04
35704;BME280;21820;51.112;13.762;2023-02-22T06:46:29;99430.31;;;18.70;63.19
35704;BME280;21820;51.112;13.762;2023-02-22T06:48:55;99427.72;;;18.70;62.86
35704;BME280;21820;51.112;13.762;2023-02-22T06:51:21;99427.72;;;18.70;62.78
35704;BME280;21820;51.112;13.762;2023-02-22T06:53:47;99426.03;;;18.69;63.67
35704;BME280;21820;51.112;13.762;2023-02-22T06:56:12;99433.75;;;18.71;63.06
35704;BME280;21820;51.112;13.762;2023-02-22T06:58:37;99419.97;;;18.59;62.98
35704;BME280;21820;51.112;13.762;2023-02-22T07:01:03;99441.66;;;18.69;62.89
35704;BME280;21820;51.112;13.762;2023-02-22T07:03:30;99446.88;;;18.69;63.29
35704;BME280;21820;51.112;13.762;2023-02-22T07:05:56;99438.38;;;18.67;63.40
35704;BME280;21820;51.112;13.762;2023-02-22T07:08:21;99425.25;;;18.58;63.17
35704;BME280;21820;51.112;13.762;2023-02-22T07:10:46;99447.69;;;18.70;62.79
35704;BME280;21820;51.112;13.762;2023-02-22T07:13:14;99442.75;;;18.67;63.23
35704;BME280;21820;51.112;13.762;2023-02-22T07:15:40;99444.25;;;18.69;62.78
35704;BME280;21820;51.112;13.762;2023-02-22T07:18:06;99428.69;;;18.58;63.43
35704;BME280;21820;51.112;13.762;2023-02-22T07:20:32;99446.88;;;18.69;63.23
35704;BME280;21820;51.112;13.762;2023-02-22T07:22:58;99452.06;;;18.69;63.06
35704;BME280;21820;51.112;13.762;2023-02-22T07:25:23;99445.22;;;18.68;62.75
35704;BME280;21820;51.112;13.762;2023-02-22T07:27:49;99455.66;;;18.68;62.89
35704;BME280;21820;51.112;13.762;2023-02-22T07:30:17;99456.47;;;18.69;63.49
35704;BME280;21820;51.112;13.762;2023-02-22T07:32:44;99456.47;;;18.69;62.80
35704;BME280;21820;51.112;13.762;2023-02-22T07:35:18;99453.75;;;18.70;63.41
35704;BME280;21820;51.112;13.762;2023-02-22T07:37:44;99432.38;;;18.56;63.32
35704;BME280;21820;51.112;13.762;2023-02-22T07:40:10;99458.25;;;18.68;62.72
35704;BME280;21820;51.112;13.762;2023-02-22T07:42:52;99453.88;;;18.69;62.86
35704;BME280;21820;51.112;13.762;2023-02-22T07:45:19;99441.00;;;18.56;63.13
35704;BME280;21820;51.112;13.762;2023-02-22T07:47:45;99458.25;;;18.68;63.13
35704;BME280;21820;51.112;13.762;2023-02-22T07:50:12;99450.44;;;18.68;62.75
35704;BME280;21820;51.112;13.762;2023-02-22T07:52:38;99445.22;;;18.68;62.84
35704;BME280;21820;51.112;13.762;2023-02-22T07:55:04;99444.97;;;18.71;63.86
35704;BME280;21820;51.112;13.762;2023-02-22T07:57:31;99448.00;;;18.56;62.42
35704;BME280;21820;51.112;13.762;2023-02-22T07:59:56;99443.66;;;18.45;63.92
35704;BME280;21820;51.112;13.762;2023-02-22T08:02:24;99450.88;;;18.42;63.35
35704;BME280;21820;51.112;13.762;2023-02-22T08:04:49;99449.47;;;18.38;62.94
35704;BME280;21820;51.112;13.762;2023-02-22T08:07:15;99450.16;;;18.40;62.57
35704;BME280;21820;51.112;13.762;2023-02-22T08:09:40;99444.97;;;18.40;62.62
35704;BME280;21820;51.112;13.762;2023-02-22T08:12:05;99453.22;;;18.45;62.55
35704;BME280;21820;51.112;13.762;2023-02-22T08:14:31;99460.69;;;18.49;61.92
35704;BME280;21820;51.112;13.762;2023-02-22T08:16:56;99449.53;;;18.58;62.16
35704;BME280;21820;51.112;13.762;2023-02-22T08:19:21;99449.28;;;18.61;61.38
35704;BME280;21820;51.112;13.762;2023-02-22T08:21:47;99448.47;;;18.61;61.94
35704;BME280;21820;51.112;13.762;2023-02-22T08:24:12;99452.00;;;18.60;62.10
35704;BME280;21820;51.112;13.762;2023-02-22T08:26:43;99446.53;;;18.63;61.92
35704;BME280;21820;51.112;13.762;2023-02-22T08:29:09;99450.63;;;18.56;62.06
35704;BME280;21820;51.112;13.762;2023-02-22T08:31:34;99451.22;;;18.48;62.38
35704;BME280;21820;51.112;13.762;2023-02-22T08:33:59;99446.97;;;18.47;62.56
35704;BME280;21820;51.112;13.762;2023-02-22T08:36:25;99446.50;;;18.42;62.57
35704;BME280;21820;51.112;13.762;2023-02-22T08:38:51;99431.84;;;18.30;62.41
35704;BME280;21820;51.112;13.762;2023-02-22T08:41:16;99451.47;;;18.45;62.52
35704;BME280;21820;51.112;13.762;2023-02-22T08:43:42;99449.38;;;18.39;63.36
35704;BME280;21820;51.112;13.762;2023-02-22T08:46:07;99444.97;;;18.40;62.59
35704;BME280;21820;51.112;13.762;2023-02-22T08:48:33;99426.75;;;18.29;63.12
35704;BME280;21820;51.112;13.762;2023-02-22T08:50:58;99445.81;;;18.40;63.66
35704;BME280;21820;51.112;13.762;2023-02-22T08:53:23;99438.34;;;18.36;63.02
35704;BME280;21820;51.112;13.762;2023-02-22T08:55:49;99443.41;;;18.37;62.74
35704;BME280;21820;51.112;13.762;2023-02-22T08:58:14;99446.75;;;18.39;63.06
35704;BME280;21820;51.112;13.762;2023-02-22T09:00:40;99449.59;;;18.36;64.71
35704;BME280;21820;51.112;13.762;2023-02-22T09:03:09;99448.28;;;18.42;64.53
35704;BME280;21820;51.112;13.762;2023-02-22T09:05:35;99447.44;;;18.41;64.18
35704;BME280;21820;51.112;13.762;2023-02-22T09:08:00;99440.34;;;18.43;65.38
35704;BME280;21820;51.112;13.762;2023-02-22T09:10:29;99442.81;;;18.45;64.36
35704;BME280;21820;51.112;13.762;2023-02-22T09:12:55;99425.69;;;18.31;64.19
35704;BME280;21820;51.112;13.762;2023-02-22T09:15:21;99443.19;;;18.40;65.13
35704;BME280;21820;51.112;13.762;2023-02-22T09:17:47;99435.84;;;18.45;65.35
35704;BME280;21820;51.112;13.762;2023-02-22T09:20:13;99428.28;;;18.42;64.61
35704;BME280;21820;51.112;13.762;2023-02-22T09:22:39;99431.09;;;18.50;65.31
35704;BME280;21820;51.112;13.762;2023-02-22T09:25:05;99441.50;;;18.50;64.57
35704;BME280;21820;51.112;13.762;2023-02-22T09:27:30;99441.00;;;18.56;64.72
35704;BME280;21820;51.112;13.762;2023-02-22T09:29:56;99440.78;;;18.59;63.81
35704;BME280;21820;51.112;13.762;2023-02-22T09:32:23;99442.69;;;18.57;64.33
35704;BME280;21820;51.112;13.762;2023-02-22T09:34:52;99432.25;;;18.57;64.37
35704;BME280;21820;51.112;13.762;2023-02-22T09:37:17;99439.13;;;18.58;64.21
35704;BME280;21820;51.112;13.762;2023-02-22T09:39:43;99435.31;;;18.62;64.88
35704;BME280;21820;51.112;13.762;2023-02-22T09:44:52;99434.34;;;18.63;65.21
35704;BME280;21820;51.112;13.762;2023-02-22T09:47:23;99426.56;;;18.63;64.52
35704;BME280;21820;51.112;13.762;2023-02-22T09:50:06;99423.69;;;18.66;64.97
35704;BME280;21820;51.112;13.762;2023-02-22T09:52:46;99420.03;;;18.69;64.74
35704;BME280;21820;51.112;13.762;2023-02-22T09:55:40;99413.72;;;18.71;65.03
35704;BME280;21820;51.112;13.762;2023-02-22T10:00:42;99419.44;;;18.65;64.29
35704;BME280;21820;51.112;13.762;2023-02-22T10:03:29;99390.41;;;18.49;64.65
35704;BME280;21820;51.112;13.762;2023-02-22T10:06:12;99389.19;;;18.53;64.71
35704;BME280;21820;51.112;13.762;2023-02-22T10:08:39;99412.59;;;18.64;64.90
35704;BME280;21820;51.112;13.762;2023-02-22T10:14:14;99391.34;;;18.48;64.67
35704;BME280;21820;51.112;13.762;2023-02-22T10:19:23;99408.97;;;18.56;64.75
35704;BME280;21820;51.112;13.762;2023-02-22T10:27:41;99401.72;;;18.59;65.29
35704;BME280;21820;51.112;13.762;2023-02-22T10:32:44;99402.66;;;18.58;64.88
35704;BME280;21820;51.112;13.762;2023-02-22T10:35:27;99400.78;;;18.60;64.97
35704;BME280;21820;51.112;13.762;2023-02-22T10:38:01;99392.25;;;18.58;64.44
35704;BME280;21820;51.112;13.762;2023-02-22T10:40:31;99393.09;;;18.59;63.93
35704;BME280;21820;51.112;13.762;2023-02-22T10:43:07;99394.84;;;18.58;65.29
35704;BME280;21820;51.112;13.762;2023-02-22T10:45:34;99376.63;;;18.58;64.70
35704;BME280;21820;51.112;13.762;2023-02-22T10:48:05;99383.50;;;18.59;64.45
35704;BME280;21820;51.112;13.762;2023-02-22T10:50:37;99386.78;;;18.61;64.38
35704;BME280;21820;51.112;13.762;2023-02-22T10:53:05;99378.03;;;18.62;64.84
35704;BME280;21820;51.112;13.762;2023-02-22T10:55:31;99379.69;;;18.63;64.33
35704;BME280;21820;51.112;13.762;2023-02-22T10:58:02;99381.34;;;18.64;64.33
35704;BME280;21820;51.112;13.762;2023-02-22T11:00:36;99386.56;;;18.64;64.44
35704;BME280;21820;51.112;13.762;2023-02-22T11:03:16;99371.88;;;18.63;64.60
35704;BME280;21820;51.112;13.762;2023-02-22T11:05:42;99376.16;;;18.64;64.30
35704;BME280;21820;51.112;13.762;2023-02-22T11:10:50;99370.94;;;18.64;64.59
35704;BME280;21820;51.112;13.762;2023-02-22T11:15:42;99371.03;;;18.63;64.08
35704;BME280;21820;51.112;13.762;2023-02-22T11:18:21;99370.09;;;18.64;64.16
35704;BME280;21820;51.112;13.762;2023-02-22T11:20:48;99367.63;;;18.62;63.39
35704;BME280;21820;51.112;13.762;2023-02-22T11:23:22;99363.22;;;18.63;63.56
35704;BME280;21820;51.112;13.762;2023-02-22T11:25:50;99364.06;;;18.63;64.29
35704;BME280;21820;51.112;13.762;2023-02-22T11:28:29;99368.44;;;18.63;64.04
35704;BME280;21820;51.112;13.762;2023-02-22T11:30:57;99355.53;;;18.61;64.27
35704;BME280;21820;51.112;13.762;2023-02-22T11:33:25;99352.94;;;18.61;63.83
35704;BME280;21820;51.112;13.762;2023-02-22T11:35:55;99357.22;;;18.62;64.08
35704;BME280;21820;51.112;13.762;2023-02-22T11:38:24;99352.13;;;18.61;64.15
35704;BME280;21820;51.112;13.762;2023-02-22T11:41:13;99349.28;;;18.64;64.08
35704;BME280;21820;51.112;13.762;2023-02-22T11:43:39;99345.00;;;18.63;63.67
35704;BME280;21820;51.112;13.762;2023-02-22T11:46:08;99336.38;;;18.62;63.82
35704;BME280;21820;51.112;13.762;2023-02-22T11:48:37;99339.13;;;18.61;63.81
35704;BME280;21820;51.112;13.762;2023-02-22T11:51:15;99337.19;;;18.63;63.66
35704;BME280;21820;51.112;13.762;2023-02-22T11:54:08;99331.19;;;18.62;64.24
35704;BME280;21820;51.112;13.762;2023-02-22T11:56:42;99331.19;;;18.62;64.05
35704;BME280;21820;51.112;13.762;2023-02-22T12:02:07;99327.75;;;18.62;64.01
35704;BME280;21820;51.112;13.762;2023-02-22T12:07:47;99327.63;;;18.63;64.08
35704;BME280;21820;51.112;13.762;2023-02-22T12:10:41;99325.97;;;18.62;64.19
35704;BME280;21820;51.112;13.762;2023-02-22T12:16:34;99314.84;;;18.60;63.77
35704;BME280;21820;51.112;13.762;2023-02-22T12:19:20;99306.16;;;18.50;63.36
35704;BME280;21820;51.112;13.762;2023-02-22T12:21:55;99317.47;;;18.60;63.35
35704;BME280;21820;51.112;13.762;2023-02-22T12:24:26;99324.31;;;18.61;63.40
35704;BME280;21820;51.112;13.762;2023-02-22T12:27:01;99320.06;;;18.60;63.42
35704;BME280;21820;51.112;13.762;2023-02-22T12:32:14;99313.44;;;18.56;63.84
35704;BME280;21820;51.112;13.762;2023-02-22T12:34:51;99320.06;;;18.60;64.04
35704;BME280;21820;51.112;13.762;2023-02-22T12:37:43;99318.16;;;18.62;64.01
35704;BME280;21820;51.112;13.762;2023-02-22T12:40:23;99313.09;;;18.61;63.39
35704;BME280;21820;51.112;13.762;2023-02-22T12:43:09;99308.69;;;18.61;64.09
35704;BME280;21820;51.112;13.762;2023-02-22T12:45:47;99308.94;;;18.58;63.71
35704;BME280;21820;51.112;13.762;2023-02-22T12:50:43;99308.00;;;18.59;63.10
35704;BME280;21820;51.112;13.762;2023-02-22T12:53:20;99301.84;;;18.60;63.70
35704;BME280;21820;51.112;13.762;2023-02-22T12:55:52;99302.09;;;18.57;63.49
35704;BME280;21820;51.112;13.762;2023-02-22T12:58:34;99299.25;;;18.60;63.92
35704;BME280;21820;51.112;13.762;2023-02-22T13:01:10;99301.00;;;18.60;63.82
35704;BME280;21820;51.112;13.762;2023-02-22T13:03:41;99302.28;;;18.65;63.22
35704;BME280;21820;51.112;13.762;2023-02-22T13:09:21;99304.44;;;18.60;63.77
35704;BME280;21820;51.112;13.762;2023-02-22T13:20:23;99294.16;;;18.59;63.95
35704;BME280;21820;51.112;13.762;2023-02-22T13:26:04;99294.28;;;18.57;63.43
35704;BME280;21820;51.112;13.762;2023-02-22T13:28:45;99293.31;;;18.58;63.92
35704;BME280;21820;51.112;13.762;2023-02-22T13:36:29;99285.66;;;18.57;63.56
35704;BME280;21820;51.112;13.762;2023-02-22T13:39:18;99286.34;;;18.59;63.28
35704;BME280;21820;51.112;13.762;2023-02-22T13:42:09;99282.91;;;18.58;63.32
35704;BME280;21820;51.112;13.762;2023-02-22T13:44:51;99288.25;;;18.57;63.83
35704;BME280;21820;51.112;13.762;2023-02-22T13:52:42;99286.47;;;18.57;63.08
35704;BME280;21820;51.112;13.762;2023-02-22T13:55:18;99291.69;;;18.57;63.26
35704;BME280;21820;51.112;13.762;2023-02-22T13:57:47;99289.22;;;18.56;63.24
35704;BME280;21820;51.112;13.762;2023-02-22T14:03:06;99289.78;;;18.59;63.75
35704;BME280;21820;51.112;13.762;2023-02-22T14:05:52;99290.84;;;18.57;63.28
35704;BME280;21820;51.112;13.762;2023-02-22T14:10:44;99286.47;;;18.57;63.20
35704;BME280;21820;51.112;13.762;2023-02-22T14:13:11;99288.38;;;18.55;63.31
35704;BME280;21820;51.112;13.762;2023-02-22T14:18:22;99282.34;;;18.55;63.65
35704;BME280;21820;51.112;13.762;2023-02-22T14:21:04;99282.06;;;18.58;63.85
35704;BME280;21820;51.112;13.762;2023-02-22T14:23:41;99277.00;;;18.56;63.57
35704;BME280;21820;51.112;13.762;2023-02-22T14:26:16;99278.66;;;18.57;63.78
35704;BME280;21820;51.112;13.762;2023-02-22T14:29:27;99284.81;;;18.56;63.50
35704;BME280;21820;51.112;13.762;2023-02-22T14:37:13;99267.56;;;18.55;63.62
35704;BME280;21820;51.112;13.762;2023-02-22T14:39:47;99267.56;;;18.55;63.41
35704;BME280;21820;51.112;13.762;2023-02-22T14:42:22;99262.59;;;18.52;63.78